createdAt,value
2022-10-31T00:00:30.001Z,7.83
2022-10-31T00:05:32.407Z,11.43
2022-10-31T00:10:34.662Z,10.90
2022-10-31T00:15:38.088Z,12.63
2022-10-31T00:20:40.831Z,11.63
2022-10-31T00:25:43.114Z,14.03
2022-10-31T00:30:45.381Z,12.57
2022-10-31T00:35:51.669Z,13.27
2022-10-31T00:40:53.989Z,12.50
2022-10-31T00:45:56.311Z,11.83
2022-10-31T00:51:00.591Z,13.80
2022-10-31T00:56:03.474Z,13.07
2022-10-31T01:01:06.301Z,8.60
2022-10-31T01:06:12.780Z,13.33
2022-10-31T01:11:16.384Z,11.90
2022-10-31T01:16:20.068Z,13.77
2022-10-31T01:21:28.707Z,11.20
2022-10-31T01:26:34.573Z,11.37
2022-10-31T01:31:39.338Z,9.57
2022-10-31T01:36:41.826Z,10.90
2022-10-31T01:41:49.135Z,11.30
2022-10-31T01:47:14.468Z,12.27
2022-10-31T01:52:38.460Z,9.87
2022-10-31T01:57:46.108Z,8.77
2022-10-31T02:02:50.381Z,11.90
2022-10-31T02:07:58.049Z,11.80
2022-10-31T02:13:07.960Z,8.70
2022-10-31T02:18:15.770Z,12.03
2022-10-31T02:23:40.355Z,13.20
2022-10-31T02:29:16.964Z,11.43
2022-10-31T02:34:46.665Z,10.43
2022-10-31T02:39:54.977Z,9.33
2022-10-31T02:45:33.919Z,12.67
2022-10-31T02:50:41.258Z,9.93
2022-10-31T02:55:52.055Z,10.77
2022-10-31T03:01:20.350Z,9.30
2022-10-31T03:06:26.587Z,10.50
2022-10-31T03:11:46.448Z,7.93
2022-10-31T03:16:56.820Z,9.43
2022-10-31T03:22:24.395Z,11.70
2022-10-31T03:27:29.819Z,11.30
2022-10-31T03:32:43.930Z,10.33
2022-10-31T03:37:48.605Z,11.30
2022-10-31T03:43:03.515Z,9.77
2022-10-31T03:48:08.885Z,8.77
2022-10-31T03:53:17.568Z,8.70
2022-10-31T03:58:33.546Z,8.97
2022-10-31T04:03:38.495Z,8.93
2022-10-31T04:09:04.088Z,8.47
2022-10-31T04:14:07.930Z,10.77
2022-10-31T04:19:13.080Z,9.83
2022-10-31T04:24:15.990Z,7.57
2022-10-31T04:29:18.380Z,9.17
2022-10-31T04:34:20.684Z,7.93
2022-10-31T04:39:26.732Z,7.93
2022-10-31T04:44:52.005Z,13.77
2022-10-31T04:49:55.098Z,8.40
2022-10-31T04:54:57.658Z,11.00
2022-10-31T05:00:26.156Z,10.33
2022-10-31T05:05:31.073Z,11.00
2022-10-31T05:10:35.810Z,12.30
2022-10-31T05:15:39.348Z,10.63
2022-10-31T05:21:00.613Z,11.97
2022-10-31T05:26:10.775Z,10.67
2022-10-31T05:31:13.300Z,10.13
2022-10-31T05:36:17.391Z,9.77
2022-10-31T05:41:33.185Z,12.07
2022-10-31T05:46:41.096Z,14.90
2022-10-31T05:52:15.677Z,12.43
2022-10-31T05:57:26.840Z,13.43
2022-10-31T06:02:33.128Z,10.23
2022-10-31T06:07:56.739Z,10.30
2022-10-31T06:12:59.756Z,9.47
2022-10-31T06:18:16.861Z,13.30
2022-10-31T06:23:24.575Z,11.03
2022-10-31T06:28:34.488Z,10.80
2022-10-31T06:33:48.405Z,10.80
2022-10-31T06:38:50.771Z,12.60
2022-10-31T06:43:56.777Z,14.87
2022-10-31T06:49:17.738Z,12.57
2022-10-31T06:54:29.005Z,11.33
2022-10-31T06:59:31.750Z,12.90
2022-10-31T07:04:54.405Z,10.30
2022-10-31T07:09:56.744Z,10.57
2022-10-31T07:15:15.754Z,11.47
2022-10-31T07:20:19.674Z,10.47
2022-10-31T07:25:24.057Z,11.00
2022-10-31T07:30:41.557Z,10.10
2022-10-31T07:35:44.562Z,11.83
2022-10-31T07:40:53.744Z,11.33
2022-10-31T07:45:56.400Z,13.17
2022-10-31T07:51:18.895Z,10.93
2022-10-31T07:56:40.203Z,12.87
2022-10-31T08:01:42.739Z,14.07
2022-10-31T08:07:03.828Z,14.37
2022-10-31T08:12:10.591Z,13.87
2022-10-31T08:17:13.527Z,15.70
2022-10-31T08:22:22.706Z,13.77
2022-10-31T08:27:25.432Z,15.33
2022-10-31T08:32:29.782Z,16.47
2022-10-31T08:38:04.598Z,16.67
2022-10-31T08:43:14.881Z,19.63
2022-10-31T08:48:18.293Z,20.90
2022-10-31T08:53:20.933Z,20.17
2022-10-31T08:58:36.378Z,21.47
2022-10-31T09:03:42.720Z,25.13
2022-10-31T09:08:46.383Z,25.60
2022-10-31T09:13:48.830Z,26.83
2022-10-31T09:19:00.055Z,24.77
2022-10-31T09:24:02.684Z,23.60
2022-10-31T09:29:05.539Z,23.63
2022-10-31T09:34:08.199Z,23.03
2022-10-31T09:39:13.371Z,24.47
2022-10-31T09:44:44.954Z,23.83
2022-10-31T09:50:07.522Z,26.23
2022-10-31T09:55:20.079Z,28.13
2022-10-31T10:00:23.407Z,22.60
2022-10-31T10:05:40.180Z,25.03
2022-10-31T10:11:13.594Z,26.43
2022-10-31T10:17:00.202Z,26.53
2022-10-31T10:22:28.532Z,22.77
2022-10-31T10:27:48.227Z,21.80
2022-10-31T10:32:58.508Z,20.20
2022-10-31T10:38:19.909Z,21.53
2022-10-31T10:43:31.892Z,20.03
2022-10-31T10:49:05.932Z,18.67
2022-10-31T10:54:34.249Z,19.47
2022-10-31T10:59:36.549Z,17.03
2022-10-31T11:04:41.792Z,18.50
2022-10-31T11:09:44.594Z,19.80
2022-10-31T11:14:53.983Z,16.03
2022-10-31T11:20:18.013Z,17.27
2022-10-31T11:25:26.256Z,14.47
2022-10-31T11:30:29.608Z,19.13
2022-10-31T11:35:31.948Z,12.37
2022-10-31T11:40:34.393Z,13.23
2022-10-31T11:45:37.748Z,14.13
2022-10-31T11:50:42.836Z,14.03
2022-10-31T11:55:46.428Z,14.67
2022-10-31T12:00:55.310Z,15.30
2022-10-31T12:06:06.149Z,14.13
2022-10-31T12:11:43.747Z,14.23
2022-10-31T12:16:51.809Z,12.80
2022-10-31T12:22:00.004Z,16.13
2022-10-31T12:27:36.996Z,12.33
2022-10-31T12:32:50.925Z,12.23
2022-10-31T12:38:05.857Z,14.33
2022-10-31T12:43:35.522Z,10.37
2022-10-31T12:49:01.549Z,11.90
2022-10-31T12:54:20.726Z,8.40
2022-10-31T12:59:29.496Z,10.20
2022-10-31T13:04:36.533Z,12.13
2022-10-31T13:09:54.241Z,10.13
2022-10-31T13:14:59.859Z,8.47
2022-10-31T13:20:23.832Z,9.57
2022-10-31T13:25:31.093Z,9.27
2022-10-31T13:30:37.493Z,8.30
2022-10-31T13:35:51.336Z,10.23
2022-10-31T13:41:03.145Z,9.07
2022-10-31T13:46:31.620Z,9.90
2022-10-31T13:51:36.048Z,13.07
2022-10-31T13:56:40.693Z,9.53
2022-10-31T14:02:02.638Z,12.13
2022-10-31T14:07:14.170Z,10.73
2022-10-31T14:12:38.083Z,11.03
2022-10-31T14:17:48.974Z,9.80
2022-10-31T14:22:51.598Z,9.80
2022-10-31T14:27:55.730Z,11.73
2022-10-31T14:33:18.229Z,9.30
2022-10-31T14:38:29.596Z,10.37
2022-10-31T14:44:04.318Z,14.57
2022-10-31T14:49:32.699Z,11.23
2022-10-31T14:54:40.718Z,7.90
2022-10-31T14:59:50.172Z,9.03
2022-10-31T15:04:54.405Z,9.40
2022-10-31T15:10:05.749Z,7.27
2022-10-31T15:15:24.488Z,8.27
2022-10-31T15:20:29.283Z,8.40
2022-10-31T15:25:35.324Z,6.63
2022-10-31T15:30:37.650Z,8.87
2022-10-31T15:35:39.984Z,8.53
2022-10-31T15:40:54.672Z,9.03
2022-10-31T15:45:58.617Z,8.77
2022-10-31T15:51:01.334Z,6.07
2022-10-31T15:56:07.894Z,9.00
2022-10-31T16:01:31.629Z,5.90
2022-10-31T16:06:35.372Z,7.47
2022-10-31T16:11:39.545Z,9.60
2022-10-31T16:16:53.360Z,7.80
2022-10-31T16:22:19.648Z,8.27
2022-10-31T16:27:30.081Z,6.53
2022-10-31T16:32:38.510Z,9.50
2022-10-31T16:37:42.432Z,8.77
2022-10-31T16:42:46.343Z,8.10
2022-10-31T16:47:49.444Z,10.27
2022-10-31T16:53:12.400Z,8.50
2022-10-31T16:58:22.386Z,8.17
2022-10-31T17:03:24.780Z,6.90
2022-10-31T17:08:27.198Z,7.73
2022-10-31T17:13:32.235Z,7.87
2022-10-31T17:18:34.537Z,8.67
2022-10-31T17:23:38.151Z,9.63
2022-10-31T17:28:40.660Z,8.40
2022-10-31T17:33:43.161Z,7.20
2022-10-31T17:38:45.520Z,9.83
2022-10-31T17:43:47.929Z,11.17
2022-10-31T17:48:50.378Z,8.70
2022-10-31T17:53:52.661Z,9.57
2022-10-31T17:58:57.108Z,7.83
2022-10-31T18:03:59.488Z,8.27
2022-10-31T18:09:05.835Z,8.13
2022-10-31T18:14:09.391Z,7.17
2022-10-31T18:19:13.563Z,7.27
2022-10-31T18:24:15.838Z,7.93
2022-10-31T18:29:18.297Z,11.03
2022-10-31T18:34:20.738Z,7.73
2022-10-31T18:39:23.048Z,7.40
2022-10-31T18:44:25.706Z,5.30
2022-10-31T18:49:32.458Z,7.73
2022-10-31T18:54:34.712Z,5.80
2022-10-31T18:59:37.130Z,7.00
2022-10-31T19:04:39.459Z,8.87
2022-10-31T19:09:41.731Z,8.23
2022-10-31T19:14:44.049Z,7.33
2022-10-31T19:19:46.355Z,6.40
2022-10-31T19:24:48.689Z,7.00
2022-10-31T19:29:50.980Z,10.77
2022-10-31T19:34:53.269Z,8.30
2022-10-31T19:39:55.548Z,7.70
2022-10-31T19:44:57.781Z,9.37
2022-10-31T19:50:00.055Z,8.87
2022-10-31T19:55:02.814Z,10.30
2022-10-31T20:00:05.918Z,8.97
2022-10-31T20:05:13.935Z,8.13
2022-10-31T20:10:16.674Z,9.93
2022-10-31T20:15:18.955Z,7.30
2022-10-31T20:20:21.279Z,8.50
2022-10-31T20:25:23.553Z,6.80
2022-10-31T20:30:26.313Z,7.67
2022-10-31T20:35:28.593Z,8.23
2022-10-31T20:40:31.728Z,8.87
2022-10-31T20:45:34.120Z,8.67
2022-10-31T20:50:39.200Z,7.27
2022-10-31T20:55:41.560Z,7.73
2022-10-31T21:00:43.899Z,6.20
2022-10-31T21:06:13.017Z,6.67
2022-10-31T21:11:18.221Z,9.17
2022-10-31T21:16:26.174Z,6.63
2022-10-31T21:21:32.778Z,7.10
2022-10-31T21:26:39.851Z,7.10
2022-10-31T21:31:43.154Z,6.37
2022-10-31T21:36:45.557Z,6.50
2022-10-31T21:41:49.787Z,7.40
2022-10-31T21:46:52.030Z,5.57
2022-10-31T21:51:54.315Z,6.20
2022-10-31T21:56:58.076Z,9.37
2022-10-31T22:02:01.272Z,7.27
2022-10-31T22:07:03.879Z,6.33
2022-10-31T22:12:08.938Z,7.83
2022-10-31T22:17:11.426Z,5.93
2022-10-31T22:22:13.719Z,6.57
2022-10-31T22:27:15.959Z,7.17
2022-10-31T22:32:18.212Z,7.33
2022-10-31T22:37:20.466Z,9.53
2022-10-31T22:42:22.711Z,7.10
2022-10-31T22:47:24.967Z,7.57
2022-10-31T22:52:27.264Z,8.67
2022-10-31T22:57:29.719Z,7.03
2022-10-31T23:02:32.176Z,9.03
2022-10-31T23:07:34.488Z,7.00
2022-10-31T23:12:55.374Z,8.13
2022-10-31T23:17:57.752Z,6.33
2022-10-31T23:23:00.408Z,5.57
2022-10-31T23:28:02.932Z,5.87
2022-10-31T23:33:05.363Z,6.93
2022-10-31T23:38:07.643Z,5.80
2022-10-31T23:43:09.962Z,5.13
2022-10-31T23:48:12.208Z,5.33
2022-10-31T23:53:14.588Z,5.10
2022-10-31T23:58:17.583Z,5.53
